createdAt,value
2023-04-11T00:01:09.275Z,20.30
2023-04-11T00:03:36.116Z,20.30
2023-04-11T00:06:02.883Z,20.30
2023-04-11T00:08:29.612Z,20.30
2023-04-11T00:10:56.282Z,20.30
2023-04-11T00:13:22.976Z,20.20
2023-04-11T00:15:49.702Z,20.20
2023-04-11T00:18:16.378Z,20.20
2023-04-11T00:20:43.058Z,20.20
2023-04-11T00:23:09.711Z,20.20
2023-04-11T00:25:36.395Z,20.20
2023-04-11T00:28:03.079Z,20.10
2023-04-11T00:30:29.739Z,20.10
2023-04-11T00:32:56.487Z,20.00
2023-04-11T00:35:23.178Z,20.00
2023-04-11T00:37:49.854Z,20.00
2023-04-11T00:40:16.536Z,20.00
2023-04-11T00:42:43.218Z,20.00
2023-04-11T00:45:09.892Z,20.00
2023-04-11T00:47:36.637Z,20.00
2023-04-11T00:50:03.405Z,20.00
2023-04-11T00:52:30.082Z,19.90
2023-04-11T00:54:56.755Z,19.90
2023-04-11T00:57:23.434Z,19.90
2023-04-11T00:59:50.098Z,19.90
2023-04-11T01:02:16.794Z,19.90
2023-04-11T01:04:43.486Z,19.90
2023-04-11T01:07:10.165Z,19.90
2023-04-11T01:09:36.865Z,19.90
2023-04-11T01:12:03.553Z,19.80
2023-04-11T01:14:30.224Z,19.80
2023-04-11T01:16:56.943Z,19.80
2023-04-11T01:19:23.718Z,19.80
2023-04-11T01:21:50.389Z,19.80
2023-04-11T01:24:17.948Z,19.70
2023-04-11T01:26:45.680Z,19.70
2023-04-11T01:29:12.360Z,19.70
2023-04-11T01:31:39.042Z,19.60
2023-04-11T01:34:05.739Z,19.60
2023-04-11T01:36:33.166Z,19.60
2023-04-11T01:39:00.133Z,19.60
2023-04-11T01:41:26.825Z,19.60
2023-04-11T01:43:53.485Z,19.60
2023-04-11T01:46:20.141Z,19.60
2023-04-11T01:48:46.886Z,19.50
2023-04-11T01:51:13.612Z,19.50
2023-04-11T01:53:40.265Z,19.40
2023-04-11T01:56:06.934Z,19.40
2023-04-11T01:58:33.601Z,19.40
2023-04-11T02:01:00.389Z,19.40
2023-04-11T02:03:27.301Z,19.40
2023-04-11T02:05:54.029Z,19.40
2023-04-11T02:08:20.677Z,19.30
2023-04-11T02:10:47.346Z,19.30
2023-04-11T02:13:14.012Z,19.30
2023-04-11T02:15:40.731Z,19.30
2023-04-11T02:18:07.414Z,19.30
2023-04-11T02:20:34.328Z,19.30
2023-04-11T02:23:01.013Z,19.30
2023-04-11T02:25:27.657Z,19.20
2023-04-11T02:27:54.317Z,19.20
2023-04-11T02:30:20.965Z,19.20
2023-04-11T02:32:47.650Z,19.20
2023-04-11T02:35:14.313Z,19.20
2023-04-11T02:37:40.981Z,19.10
2023-04-11T02:40:07.675Z,19.20
2023-04-11T02:42:34.387Z,19.10
2023-04-11T02:45:01.063Z,19.10
2023-04-11T02:47:27.734Z,19.10
2023-04-11T02:49:54.598Z,19.00
2023-04-11T02:52:21.250Z,19.00
2023-04-11T02:54:47.911Z,19.00
2023-04-11T02:57:14.762Z,19.00
2023-04-11T02:59:41.395Z,19.00
2023-04-11T03:02:08.124Z,18.90
2023-04-11T03:04:34.842Z,18.90
2023-04-11T03:07:01.751Z,18.90
2023-04-11T03:09:29.449Z,18.80
2023-04-11T03:11:56.134Z,18.80
2023-04-11T03:14:22.996Z,18.80
2023-04-11T03:16:49.632Z,18.80
2023-04-11T03:19:16.279Z,18.80
2023-04-11T03:21:42.934Z,18.80
2023-04-11T03:24:12.452Z,18.70
2023-04-11T03:26:39.092Z,18.70
2023-04-11T03:29:05.965Z,18.70
2023-04-11T03:31:32.852Z,18.70
2023-04-11T03:33:59.569Z,18.60
2023-04-11T03:36:26.257Z,18.50
2023-04-11T03:38:53.064Z,18.40
2023-04-11T03:41:19.939Z,18.30
2023-04-11T03:43:46.578Z,18.30
2023-04-11T03:46:13.447Z,18.20
2023-04-11T03:48:40.327Z,18.20
2023-04-11T03:51:06.978Z,18.20
2023-04-11T03:53:33.615Z,18.20
2023-04-11T03:56:00.494Z,18.20
2023-04-11T03:58:27.172Z,18.20
2023-04-11T04:00:54.047Z,18.10
2023-04-11T04:03:20.955Z,18.10
2023-04-11T04:05:47.681Z,18.10
2023-04-11T04:08:14.325Z,18.10
2023-04-11T04:10:40.994Z,18.00
2023-04-11T04:13:07.666Z,18.00
2023-04-11T04:15:34.326Z,18.00
2023-04-11T04:18:01.008Z,18.00
2023-04-11T04:20:27.665Z,17.90
2023-04-11T04:22:54.321Z,17.90
2023-04-11T04:25:20.978Z,17.90
2023-04-11T04:27:47.640Z,17.90
2023-04-11T04:30:14.274Z,17.90
2023-04-11T04:32:40.986Z,17.90
2023-04-11T04:35:07.708Z,17.80
2023-04-11T04:37:34.370Z,17.80
2023-04-11T04:40:01.042Z,17.80
2023-04-11T04:42:27.689Z,17.80
2023-04-11T04:44:54.319Z,17.80
2023-04-11T04:47:20.981Z,17.70
2023-04-11T04:49:47.641Z,17.70
2023-04-11T04:52:14.310Z,17.70
2023-04-11T04:54:40.967Z,17.70
2023-04-11T04:57:07.603Z,17.60
2023-04-11T04:59:34.267Z,17.60
2023-04-11T05:02:01.284Z,17.60
2023-04-11T05:04:28.201Z,17.60
2023-04-11T05:06:55.808Z,17.60
2023-04-11T05:09:22.483Z,17.50
2023-04-11T05:11:49.384Z,17.50
2023-04-11T05:14:16.064Z,17.50
2023-04-11T05:16:42.972Z,17.50
2023-04-11T05:19:09.714Z,17.50
2023-04-11T05:21:36.585Z,17.50
2023-04-11T05:24:03.257Z,17.50
2023-04-11T05:26:29.914Z,17.50
2023-04-11T05:28:56.570Z,17.40
2023-04-11T05:31:23.272Z,17.40
2023-04-11T05:33:50.163Z,17.40
2023-04-11T05:36:16.843Z,17.40
2023-04-11T05:38:43.763Z,17.40
2023-04-11T05:41:10.405Z,17.40
2023-04-11T05:43:37.047Z,17.30
2023-04-11T05:46:03.984Z,17.30
2023-04-11T05:48:30.666Z,17.30
2023-04-11T05:50:57.345Z,17.30
2023-04-11T05:53:23.981Z,17.20
2023-04-11T05:55:50.601Z,17.30
2023-04-11T05:58:17.252Z,17.30
2023-04-11T06:00:44.034Z,17.20
2023-04-11T06:03:10.863Z,17.20
2023-04-11T06:05:37.576Z,17.20
2023-04-11T06:08:04.237Z,17.10
2023-04-11T06:10:31.394Z,17.00
2023-04-11T06:12:58.062Z,16.90
2023-04-11T06:15:25.256Z,16.90
2023-04-11T06:17:51.943Z,16.80
2023-04-11T06:20:18.626Z,16.80
2023-04-11T06:22:46.127Z,16.70
2023-04-11T06:25:12.751Z,16.70
2023-04-11T06:27:39.404Z,16.70
2023-04-11T06:30:06.064Z,16.50
2023-04-11T06:32:32.747Z,16.60
2023-04-11T06:34:59.446Z,16.70
2023-04-11T06:37:26.082Z,16.70
2023-04-11T06:39:52.754Z,16.70
2023-04-11T06:42:19.406Z,16.70
2023-04-11T06:44:46.099Z,16.80
2023-04-11T06:47:12.801Z,16.80
2023-04-11T06:49:39.459Z,16.80
2023-04-11T06:52:06.135Z,16.80
2023-04-11T06:54:32.789Z,16.70
2023-04-11T06:56:59.465Z,16.70
2023-04-11T06:59:27.420Z,16.70
2023-04-11T07:01:55.250Z,16.70
2023-04-11T07:04:22.119Z,16.70
2023-04-11T07:06:48.854Z,16.70
2023-04-11T07:09:15.507Z,16.70
2023-04-11T07:11:42.186Z,16.70
2023-04-11T07:14:08.848Z,16.60
2023-04-11T07:16:35.547Z,16.60
2023-04-11T07:19:02.296Z,16.60
2023-04-11T07:21:28.963Z,16.60
2023-04-11T07:23:56.299Z,16.60
2023-04-11T07:26:23.070Z,16.60
2023-04-11T07:28:49.726Z,16.60
2023-04-11T07:31:16.432Z,16.60
2023-04-11T07:33:43.113Z,16.60
2023-04-11T07:36:09.757Z,16.60
2023-04-11T07:38:36.420Z,16.60
2023-04-11T07:41:03.086Z,16.60
2023-04-11T07:43:29.744Z,16.60
2023-04-11T07:45:56.421Z,16.50
2023-04-11T07:48:23.085Z,16.60
2023-04-11T07:50:50.354Z,16.60
2023-04-11T07:53:16.993Z,16.50
2023-04-11T07:55:43.666Z,16.50
2023-04-11T07:58:10.326Z,16.50
2023-04-11T08:00:36.962Z,16.50
2023-04-11T08:03:04.301Z,16.50
2023-04-11T08:05:31.148Z,16.50
2023-04-11T08:07:58.397Z,16.50
2023-04-11T08:10:25.216Z,16.40
2023-04-11T08:12:51.909Z,16.40
2023-04-11T08:15:18.565Z,16.40
2023-04-11T08:17:45.227Z,16.40
2023-04-11T08:20:11.897Z,16.40
2023-04-11T08:22:38.556Z,16.40
2023-04-11T08:25:05.213Z,16.40
2023-04-11T08:27:31.881Z,16.40
2023-04-11T08:29:58.528Z,16.50
2023-04-11T08:32:25.220Z,16.50
2023-04-11T08:34:51.893Z,16.50
2023-04-11T08:37:18.528Z,16.60
2023-04-11T08:39:45.160Z,16.20
2023-04-11T08:42:11.796Z,16.40
2023-04-11T08:44:38.445Z,16.40
2023-04-11T08:47:05.604Z,16.50
2023-04-11T08:49:32.246Z,16.50
2023-04-11T08:51:58.877Z,16.50
2023-04-11T08:54:26.062Z,16.50
2023-04-11T08:56:52.731Z,16.40
2023-04-11T08:59:19.383Z,16.50
2023-04-11T09:01:46.855Z,16.40
2023-04-11T09:04:13.646Z,16.40
2023-04-11T09:06:40.486Z,16.40
2023-04-11T09:09:07.231Z,16.40
2023-04-11T09:11:33.898Z,16.40
2023-04-11T09:14:00.530Z,16.40
2023-04-11T09:16:27.218Z,16.40
2023-04-11T09:18:53.938Z,15.60
2023-04-11T09:21:20.615Z,15.80
2023-04-11T09:23:47.272Z,16.10
2023-04-11T09:26:14.702Z,16.30
2023-04-11T09:28:41.349Z,16.40
2023-04-11T09:31:08.048Z,16.40
2023-04-11T09:33:34.695Z,16.50
2023-04-11T09:36:01.395Z,16.50
2023-04-11T09:38:28.061Z,16.20
2023-04-11T09:40:54.710Z,15.30
2023-04-11T09:43:21.355Z,15.30
2023-04-11T09:45:54.606Z,15.80
2023-04-11T09:48:26.857Z,16.10
2023-04-11T09:51:02.294Z,16.30
2023-04-11T09:53:29.178Z,16.50
2023-04-11T09:55:55.880Z,16.60
2023-04-11T09:58:22.522Z,16.70
2023-04-11T10:00:49.161Z,16.70
2023-04-11T10:03:15.932Z,16.70
2023-04-11T10:05:42.845Z,16.70
2023-04-11T10:08:09.503Z,16.80
2023-04-11T10:10:36.184Z,16.80
2023-04-11T10:13:02.853Z,16.80
2023-04-11T10:15:29.510Z,16.80
2023-04-11T10:17:56.299Z,16.90
2023-04-11T10:20:22.949Z,17.00
2023-04-11T10:22:49.819Z,17.20
2023-04-11T10:25:16.466Z,17.30
2023-04-11T10:27:43.109Z,17.40
2023-04-11T10:30:09.757Z,17.40
2023-04-11T10:32:36.434Z,17.50
2023-04-11T10:35:03.109Z,17.50
2023-04-11T10:37:30.025Z,17.60
2023-04-11T10:39:56.692Z,17.60
2023-04-11T10:42:23.356Z,17.70
2023-04-11T10:44:50.028Z,17.80
2023-04-11T10:47:16.753Z,17.80
2023-04-11T10:49:44.422Z,17.90
2023-04-11T10:52:12.109Z,17.90
2023-04-11T10:54:38.762Z,18.00
2023-04-11T10:57:05.392Z,18.10
2023-04-11T10:59:32.035Z,18.20
2023-04-11T11:01:58.765Z,18.30
2023-04-11T11:04:25.573Z,18.30
2023-04-11T11:06:57.152Z,18.40
2023-04-11T11:09:24.227Z,18.40
2023-04-11T11:11:50.892Z,18.50
2023-04-11T11:14:17.535Z,18.60
2023-04-11T11:16:45.092Z,18.60
2023-04-11T11:19:11.810Z,18.70
2023-04-11T11:21:38.677Z,18.70
2023-04-11T11:24:05.333Z,18.80
2023-04-11T11:26:32.210Z,18.90
2023-04-11T11:28:58.881Z,19.00
2023-04-11T11:31:25.563Z,19.00
2023-04-11T11:33:53.987Z,19.10
2023-04-11T11:36:20.765Z,19.10
2023-04-11T11:38:47.461Z,19.20
2023-04-11T11:41:14.128Z,19.30
2023-04-11T11:43:41.000Z,19.30
2023-04-11T11:46:08.654Z,19.40
2023-04-11T11:48:35.716Z,19.40
2023-04-11T11:51:02.390Z,19.40
2023-04-11T11:53:29.099Z,19.60
2023-04-11T11:55:55.762Z,19.60
2023-04-11T11:58:22.420Z,19.60
2023-04-11T12:00:49.067Z,19.70
2023-04-11T12:03:15.801Z,19.70
2023-04-11T12:05:42.553Z,19.70
2023-04-11T12:08:09.190Z,19.80
2023-04-11T12:10:35.842Z,19.90
2023-04-11T12:13:02.506Z,19.90
2023-04-11T12:15:29.155Z,19.90
2023-04-11T12:17:55.822Z,19.90
2023-04-11T12:20:22.485Z,19.90
2023-04-11T12:22:49.138Z,20.00
2023-04-11T12:25:15.950Z,20.00
2023-04-11T12:27:42.615Z,20.10
2023-04-11T12:30:09.276Z,20.10
2023-04-11T12:32:35.981Z,20.20
2023-04-11T12:35:02.670Z,20.20
2023-04-11T12:37:29.544Z,20.20
2023-04-11T12:39:56.206Z,20.30
2023-04-11T12:42:26.708Z,20.30
2023-04-11T12:44:53.942Z,20.30
2023-04-11T12:47:20.661Z,20.40
2023-04-11T12:49:47.361Z,20.40
2023-04-11T12:52:14.009Z,20.40
2023-04-11T12:54:40.679Z,20.40
2023-04-11T12:57:07.333Z,20.40
2023-04-11T12:59:34.203Z,20.40
2023-04-11T13:02:00.957Z,20.40
2023-04-11T13:04:27.849Z,20.40
2023-04-11T13:06:54.543Z,20.40
2023-04-11T13:09:21.214Z,20.40
2023-04-11T13:11:47.865Z,20.40
2023-04-11T13:14:14.520Z,20.40
2023-04-11T13:16:41.234Z,20.40
2023-04-11T13:19:07.958Z,20.50
2023-04-11T13:21:34.853Z,20.50
2023-04-11T13:24:01.497Z,20.50
2023-04-11T13:26:28.149Z,20.50
2023-04-11T13:28:54.916Z,20.50
2023-04-11T13:31:21.812Z,20.40
2023-04-11T13:33:48.590Z,20.50
2023-04-11T13:36:15.269Z,20.40
2023-04-11T13:38:41.919Z,20.40
2023-04-11T13:41:08.582Z,20.50
2023-04-11T13:43:35.226Z,20.40
2023-04-11T13:46:01.954Z,20.40
2023-04-11T13:48:28.709Z,20.40
2023-04-11T13:50:55.361Z,20.40
2023-04-11T13:53:21.999Z,20.40
2023-04-11T13:55:48.637Z,20.40
2023-04-11T13:58:15.498Z,20.40
2023-04-11T14:00:42.168Z,20.40
2023-04-11T14:03:08.860Z,20.40
2023-04-11T14:05:35.619Z,20.40
2023-04-11T14:08:02.306Z,20.40
2023-04-11T14:10:28.958Z,20.40
2023-04-11T14:12:55.609Z,20.30
2023-04-11T14:15:22.498Z,20.30
2023-04-11T14:17:49.301Z,20.30
2023-04-11T14:20:16.206Z,20.30
2023-04-11T14:22:42.869Z,20.30
2023-04-11T14:25:09.514Z,20.30
2023-04-11T14:27:36.178Z,20.30
2023-04-11T14:30:02.832Z,20.30
2023-04-11T14:32:29.744Z,20.40
2023-04-11T14:34:56.450Z,20.40
2023-04-11T14:37:23.096Z,20.30
2023-04-11T14:39:49.753Z,20.30
2023-04-11T14:42:16.399Z,20.30
2023-04-11T14:44:43.061Z,20.30
2023-04-11T14:47:09.722Z,20.30
2023-04-11T14:49:36.426Z,20.30
2023-04-11T14:52:03.094Z,20.30
2023-04-11T14:54:29.831Z,20.00
2023-04-11T14:56:56.485Z,19.00
2023-04-11T14:59:23.247Z,19.20
2023-04-11T15:01:50.010Z,19.50
2023-04-11T15:04:16.799Z,19.70
2023-04-11T15:06:43.557Z,19.90
2023-04-11T15:09:10.213Z,20.10
2023-04-11T15:11:36.877Z,20.20
2023-04-11T15:14:03.756Z,20.20
2023-04-11T15:16:30.486Z,20.30
2023-04-11T15:18:57.184Z,20.30
2023-04-11T15:21:23.857Z,20.30
2023-04-11T15:23:50.507Z,20.30
2023-04-11T15:26:17.177Z,20.30
2023-04-11T15:28:44.378Z,20.30
2023-04-11T15:31:12.676Z,20.30
2023-04-11T15:33:39.344Z,20.20
2023-04-11T15:36:06.043Z,20.20
2023-04-11T15:38:32.723Z,20.20
2023-04-11T15:40:59.420Z,20.20
2023-04-11T15:43:26.069Z,20.20
2023-04-11T15:45:52.740Z,20.20
2023-04-11T15:48:19.400Z,20.20
2023-04-11T15:50:46.059Z,20.20
2023-04-11T15:53:12.720Z,20.20
2023-04-11T15:55:39.570Z,20.20
2023-04-11T15:58:06.232Z,20.20
2023-04-11T16:00:32.909Z,20.30
2023-04-11T16:02:59.883Z,20.30
2023-04-11T16:05:26.837Z,20.20
2023-04-11T16:07:53.541Z,20.30
2023-04-11T16:10:20.211Z,20.30
2023-04-11T16:12:47.100Z,20.30
2023-04-11T16:15:13.749Z,20.30
2023-04-11T16:17:40.600Z,20.20
2023-04-11T16:20:07.555Z,20.30
2023-04-11T16:22:35.095Z,20.20
2023-04-11T16:25:01.755Z,20.10
2023-04-11T16:27:28.454Z,20.00
2023-04-11T16:29:55.370Z,19.90
2023-04-11T16:32:22.050Z,19.70
2023-04-11T16:34:48.702Z,19.60
2023-04-11T16:37:15.365Z,19.60
2023-04-11T16:39:42.026Z,19.60
2023-04-11T16:42:08.689Z,19.60
2023-04-11T16:44:35.358Z,19.50
2023-04-11T16:47:02.028Z,19.50
2023-04-11T16:49:28.681Z,19.40
2023-04-11T16:51:55.532Z,19.40
2023-04-11T16:54:22.171Z,19.40
2023-04-11T16:56:48.802Z,19.40
2023-04-11T16:59:15.458Z,19.40
2023-04-11T17:01:42.337Z,19.30
2023-04-11T17:04:09.148Z,19.30
2023-04-11T17:06:35.974Z,19.20
2023-04-11T17:09:02.645Z,19.20
2023-04-11T17:11:29.287Z,19.20
2023-04-11T17:13:56.456Z,19.20
2023-04-11T17:16:23.331Z,19.10
2023-04-11T17:18:50.102Z,19.20
2023-04-11T17:21:16.770Z,19.30
2023-04-11T17:23:43.742Z,19.30
2023-04-11T17:26:10.417Z,19.20
2023-04-11T17:28:37.092Z,19.10
2023-04-11T17:31:03.995Z,19.10
2023-04-11T17:33:30.667Z,19.00
2023-04-11T17:35:57.369Z,19.00
2023-04-11T17:38:24.100Z,18.90
2023-04-11T17:40:51.330Z,19.00
2023-04-11T17:43:19.030Z,19.00
2023-04-11T17:45:46.508Z,18.90
2023-04-11T17:48:14.663Z,18.90
2023-04-11T17:50:41.410Z,18.90
2023-04-11T17:53:08.117Z,18.80
2023-04-11T17:55:34.788Z,18.80
2023-04-11T17:58:01.477Z,18.70
2023-04-11T18:00:28.154Z,18.80
2023-04-11T18:02:55.009Z,18.80
2023-04-11T18:05:24.621Z,18.80
2023-04-11T18:07:51.976Z,18.70
2023-04-11T18:10:18.881Z,18.80
2023-04-11T18:12:45.544Z,18.70
2023-04-11T18:15:12.854Z,18.70
2023-04-11T18:17:39.567Z,18.60
2023-04-11T18:20:06.277Z,18.60
2023-04-11T18:22:32.997Z,18.60
2023-04-11T18:24:59.669Z,18.60
2023-04-11T18:27:26.527Z,18.70
2023-04-11T18:29:53.172Z,18.70
2023-04-11T18:32:22.241Z,18.80
2023-04-11T18:34:51.122Z,18.80
2023-04-11T18:37:18.182Z,18.80
2023-04-11T18:39:44.845Z,18.80
2023-04-11T18:42:11.699Z,18.80
2023-04-11T18:44:38.346Z,18.80
2023-04-11T18:47:06.263Z,18.80
2023-04-11T18:49:33.844Z,18.80
2023-04-11T18:52:00.501Z,18.80
2023-04-11T18:54:27.170Z,18.80
2023-04-11T18:56:54.490Z,18.80
2023-04-11T18:59:23.770Z,18.80
2023-04-11T19:01:51.711Z,18.80
2023-04-11T19:04:19.420Z,18.80
2023-04-11T19:06:46.261Z,18.80
2023-04-11T19:09:12.930Z,18.80
2023-04-11T19:11:39.611Z,18.40
2023-04-11T19:14:06.303Z,18.60
2023-04-11T19:16:33.604Z,18.70
2023-04-11T19:19:00.322Z,18.80
2023-04-11T19:21:27.044Z,18.80
2023-04-11T19:23:53.707Z,18.90
2023-04-11T19:26:20.359Z,18.90
2023-04-11T19:28:47.239Z,18.90
2023-04-11T19:31:13.934Z,18.90
2023-04-11T19:33:40.639Z,18.90
2023-04-11T19:36:07.326Z,19.00
2023-04-11T19:38:34.047Z,19.00
2023-04-11T19:41:00.954Z,19.00
2023-04-11T19:43:27.610Z,19.00
2023-04-11T19:45:54.511Z,19.10
2023-04-11T19:48:21.202Z,19.20
2023-04-11T19:50:47.865Z,19.20
2023-04-11T19:53:14.758Z,19.20
2023-04-11T19:55:41.395Z,19.30
2023-04-11T19:58:08.036Z,19.30
2023-04-11T20:00:34.679Z,19.40
2023-04-11T20:03:01.419Z,19.40
2023-04-11T20:05:28.192Z,19.50
2023-04-11T20:07:54.865Z,19.60
2023-04-11T20:10:21.525Z,19.60
2023-04-11T20:12:48.166Z,19.60
2023-04-11T20:15:15.092Z,19.70
2023-04-11T20:17:44.407Z,19.70
2023-04-11T20:20:13.164Z,19.90
2023-04-11T20:22:39.839Z,19.90
2023-04-11T20:25:07.754Z,19.90
2023-04-11T20:27:34.408Z,20.20
2023-04-11T20:30:01.111Z,20.20
2023-04-11T20:32:27.807Z,20.20
2023-04-11T20:34:54.550Z,20.20
2023-04-11T20:37:21.485Z,20.20
2023-04-11T20:39:48.160Z,20.20
2023-04-11T20:42:15.039Z,20.30
2023-04-11T20:44:41.782Z,20.20
2023-04-11T20:47:08.704Z,20.00
2023-04-11T20:49:35.556Z,20.20
2023-04-11T20:52:02.428Z,20.40
2023-04-11T20:54:29.299Z,20.50
2023-04-11T20:56:56.176Z,20.70
2023-04-11T20:59:22.834Z,20.80
2023-04-11T21:01:49.760Z,20.80
2023-04-11T21:04:16.543Z,21.00
2023-04-11T21:06:43.278Z,21.00
2023-04-11T21:09:10.161Z,21.10
2023-04-11T21:11:36.827Z,21.20
2023-04-11T21:14:03.499Z,21.20
2023-04-11T21:16:30.154Z,21.30
2023-04-11T21:18:56.790Z,21.40
2023-04-11T21:21:23.474Z,21.50
2023-04-11T21:23:50.146Z,21.50
2023-04-11T21:26:16.819Z,21.60
2023-04-11T21:28:43.697Z,21.70
2023-04-11T21:31:10.419Z,21.70
2023-04-11T21:33:37.310Z,21.80
2023-04-11T21:36:04.151Z,21.90
2023-04-11T21:38:30.842Z,21.90
2023-04-11T21:40:57.503Z,22.00
2023-04-11T21:43:24.157Z,22.00
2023-04-11T21:45:50.792Z,22.10
2023-04-11T21:48:17.443Z,22.20
2023-04-11T21:50:44.082Z,22.20
2023-04-11T21:53:10.722Z,22.20
2023-04-11T21:55:37.385Z,22.30
2023-04-11T21:58:04.029Z,22.30
2023-04-11T22:00:30.668Z,22.40
2023-04-11T22:02:57.708Z,22.40
2023-04-11T22:05:24.740Z,22.40
2023-04-11T22:07:51.671Z,22.50
2023-04-11T22:10:18.364Z,22.50
2023-04-11T22:12:46.078Z,22.60
2023-04-11T22:15:12.958Z,22.60
2023-04-11T22:17:39.709Z,22.70
2023-04-11T22:20:06.359Z,22.70
2023-04-11T22:22:33.025Z,22.70
2023-04-11T22:24:59.929Z,22.70
2023-04-11T22:27:26.798Z,22.70
2023-04-11T22:29:53.684Z,22.70
2023-04-11T22:32:20.355Z,22.80
2023-04-11T22:34:46.998Z,22.80
2023-04-11T22:37:13.840Z,22.80
2023-04-11T22:39:40.721Z,22.80
2023-04-11T22:42:07.604Z,22.80
2023-04-11T22:44:34.264Z,22.80
2023-04-11T22:47:01.123Z,22.90
2023-04-11T22:49:27.792Z,22.90
2023-04-11T22:51:54.668Z,22.90
2023-04-11T22:54:21.329Z,22.80
2023-04-11T22:56:47.985Z,22.90
2023-04-11T22:59:14.664Z,22.90
2023-04-11T23:01:41.522Z,22.90
2023-04-11T23:04:08.356Z,22.90
2023-04-11T23:06:35.017Z,22.90
2023-04-11T23:09:01.665Z,22.90
2023-04-11T23:11:28.342Z,22.90
2023-04-11T23:13:55.016Z,22.90
2023-04-11T23:16:21.948Z,22.90
2023-04-11T23:18:48.631Z,22.90
2023-04-11T23:21:15.286Z,22.80
2023-04-11T23:23:41.943Z,22.80
2023-04-11T23:26:08.599Z,22.80
2023-04-11T23:28:35.269Z,22.80
2023-04-11T23:31:02.017Z,22.70
2023-04-11T23:33:28.702Z,22.70
2023-04-11T23:35:55.386Z,22.70
2023-04-11T23:38:22.068Z,22.70
2023-04-11T23:40:48.744Z,22.70
2023-04-11T23:43:15.609Z,22.70
2023-04-11T23:45:42.305Z,22.70
2023-04-11T23:48:08.979Z,22.70
2023-04-11T23:50:35.646Z,22.70
2023-04-11T23:53:02.306Z,22.70
2023-04-11T23:55:29.213Z,22.70
2023-04-11T23:57:55.852Z,22.60
